sensor_id;sensor_type;location;lat;lon;timestamp;temperature;humidity
47482;DHT22;33219;47.410;9.730;2024-01-16T00:01:11;0.50;99.90
47482;DHT22;33219;47.410;9.730;2024-01-16T00:03:40;0.50;99.90
47482;DHT22;33219;47.410;9.730;2024-01-16T00:06:07;0.50;99.90
47482;DHT22;33219;47.410;9.730;2024-01-16T00:08:33;0.50;99.90
47482;DHT22;33219;47.410;9.730;2024-01-16T00:11:03;0.40;99.90
47482;DHT22;33219;47.410;9.730;2024-01-16T00:13:29;0.40;99.90
47482;DHT22;33219;47.410;9.730;2024-01-16T00:15:55;0.40;99.90
47482;DHT22;33219;47.410;9.730;2024-01-16T00:18:25;0.40;99.90
47482;DHT22;33219;47.410;9.730;2024-01-16T00:20:52;0.40;99.90
47482;DHT22;33219;47.410;9.730;2024-01-16T00:23:19;0.40;99.90
47482;DHT22;33219;47.410;9.730;2024-01-16T00:25:46;0.40;99.90
47482;DHT22;33219;47.410;9.730;2024-01-16T00:28:12;0.30;99.90
47482;DHT22;33219;47.410;9.730;2024-01-16T00:30:39;0.40;99.90
47482;DHT22;33219;47.410;9.730;2024-01-16T00:33:06;0.30;99.90
47482;DHT22;33219;47.410;9.730;2024-01-16T00:35:33;0.30;99.90
47482;DHT22;33219;47.410;9.730;2024-01-16T00:38:00;0.30;99.90
47482;DHT22;33219;47.410;9.730;2024-01-16T00:40:26;0.30;99.90
47482;DHT22;33219;47.410;9.730;2024-01-16T00:42:54;0.30;99.90
47482;DHT22;33219;47.410;9.730;2024-01-16T00:45:21;0.40;99.90
47482;DHT22;33219;47.410;9.730;2024-01-16T00:47:48;0.30;99.90
47482;DHT22;33219;47.410;9.730;2024-01-16T00:50:15;0.30;99.90
47482;DHT22;33219;47.410;9.730;2024-01-16T00:52:46;0.30;99.90
47482;DHT22;33219;47.410;9.730;2024-01-16T00:55:10;0.30;99.90
47482;DHT22;33219;47.410;9.730;2024-01-16T00:57:37;0.30;99.90
47482;DHT22;33219;47.410;9.730;2024-01-16T01:00:04;0.40;99.90
47482;DHT22;33219;47.410;9.730;2024-01-16T01:02:31;0.30;99.90
47482;DHT22;33219;47.410;9.730;2024-01-16T01:04:58;0.30;99.90
47482;DHT22;33219;47.410;9.730;2024-01-16T01:07:25;0.30;99.90
47482;DHT22;33219;47.410;9.730;2024-01-16T01:09:51;0.30;99.90
47482;DHT22;33219;47.410;9.730;2024-01-16T01:12:19;0.30;99.90
47482;DHT22;33219;47.410;9.730;2024-01-16T01:14:45;0.20;99.90
47482;DHT22;33219;47.410;9.730;2024-01-16T01:17:12;0.20;99.90
47482;DHT22;33219;47.410;9.730;2024-01-16T01:19:39;0.30;99.90
47482;DHT22;33219;47.410;9.730;2024-01-16T01:22:06;0.20;99.90
47482;DHT22;33219;47.410;9.730;2024-01-16T01:24:33;0.20;99.90
47482;DHT22;33219;47.410;9.730;2024-01-16T01:27:00;0.20;99.90
47482;DHT22;33219;47.410;9.730;2024-01-16T01:29:26;0.20;99.90
47482;DHT22;33219;47.410;9.730;2024-01-16T01:31:53;0.20;99.90
47482;DHT22;33219;47.410;9.730;2024-01-16T01:34:20;0.20;99.90
47482;DHT22;33219;47.410;9.730;2024-01-16T01:36:47;0.20;99.90
47482;DHT22;33219;47.410;9.730;2024-01-16T01:39:14;0.20;99.90
47482;DHT22;33219;47.410;9.730;2024-01-16T01:41:40;0.20;99.90
47482;DHT22;33219;47.410;9.730;2024-01-16T01:44:07;0.20;99.90
47482;DHT22;33219;47.410;9.730;2024-01-16T01:46:36;0.20;99.90
47482;DHT22;33219;47.410;9.730;2024-01-16T01:49:03;0.20;99.90
47482;DHT22;33219;47.410;9.730;2024-01-16T01:51:30;0.20;99.90
47482;DHT22;33219;47.410;9.730;2024-01-16T01:53:57;0.20;99.90
47482;DHT22;33219;47.410;9.730;2024-01-16T01:56:25;0.20;99.90
47482;DHT22;33219;47.410;9.730;2024-01-16T01:58:53;0.20;99.90
47482;DHT22;33219;47.410;9.730;2024-01-16T02:01:21;0.20;99.90
47482;DHT22;33219;47.410;9.730;2024-01-16T02:03:49;0.20;99.90
47482;DHT22;33219;47.410;9.730;2024-01-16T02:06:16;0.20;99.90
47482;DHT22;33219;47.410;9.730;2024-01-16T02:08:44;0.20;99.90
47482;DHT22;33219;47.410;9.730;2024-01-16T02:11:11;0.20;99.90
47482;DHT22;33219;47.410;9.730;2024-01-16T02:13:39;0.20;99.90
47482;DHT22;33219;47.410;9.730;2024-01-16T02:16:34;0.20;99.90
47482;DHT22;33219;47.410;9.730;2024-01-16T02:18:35;0.20;99.90
47482;DHT22;33219;47.410;9.730;2024-01-16T02:21:03;0.20;99.90
47482;DHT22;33219;47.410;9.730;2024-01-16T02:23:31;0.20;99.90
47482;DHT22;33219;47.410;9.730;2024-01-16T02:25:59;0.20;99.90
47482;DHT22;33219;47.410;9.730;2024-01-16T02:28:26;0.20;99.90
47482;DHT22;33219;47.410;9.730;2024-01-16T02:30:53;0.20;99.90
47482;DHT22;33219;47.410;9.730;2024-01-16T02:33:23;0.20;99.90
47482;DHT22;33219;47.410;9.730;2024-01-16T02:35:50;0.20;99.90
47482;DHT22;33219;47.410;9.730;2024-01-16T02:38:17;0.20;99.90
47482;DHT22;33219;47.410;9.730;2024-01-16T02:40:43;0.20;99.90
47482;DHT22;33219;47.410;9.730;2024-01-16T02:43:10;0.20;99.90
47482;DHT22;33219;47.410;9.730;2024-01-16T02:45:37;0.20;99.90
47482;DHT22;33219;47.410;9.730;2024-01-16T02:48:04;0.20;99.90
47482;DHT22;33219;47.410;9.730;2024-01-16T02:50:31;0.20;99.90
47482;DHT22;33219;47.410;9.730;2024-01-16T02:52:58;0.10;99.90
47482;DHT22;33219;47.410;9.730;2024-01-16T02:55:25;0.10;99.90
47482;DHT22;33219;47.410;9.730;2024-01-16T02:57:52;0.10;99.90
47482;DHT22;33219;47.410;9.730;2024-01-16T03:00:18;0.10;99.90
47482;DHT22;33219;47.410;9.730;2024-01-16T03:02:45;0.10;99.90
47482;DHT22;33219;47.410;9.730;2024-01-16T03:05:12;0.10;99.90
47482;DHT22;33219;47.410;9.730;2024-01-16T03:07:40;0.10;99.90
47482;DHT22;33219;47.410;9.730;2024-01-16T03:10:07;0.10;99.90
47482;DHT22;33219;47.410;9.730;2024-01-16T03:12:34;0.10;99.90
47482;DHT22;33219;47.410;9.730;2024-01-16T03:15:01;0.00;99.90
47482;DHT22;33219;47.410;9.730;2024-01-16T03:17:29;0.00;99.90
47482;DHT22;33219;47.410;9.730;2024-01-16T03:19:55;0.00;99.90
47482;DHT22;33219;47.410;9.730;2024-01-16T03:22:22;0.00;99.90
47482;DHT22;33219;47.410;9.730;2024-01-16T03:24:50;-0.10;99.90
47482;DHT22;33219;47.410;9.730;2024-01-16T03:27:16;-0.10;99.90
47482;DHT22;33219;47.410;9.730;2024-01-16T03:29:43;-0.10;99.90
47482;DHT22;33219;47.410;9.730;2024-01-16T03:32:10;-0.20;99.90
47482;DHT22;33219;47.410;9.730;2024-01-16T03:34:37;-0.20;99.90
47482;DHT22;33219;47.410;9.730;2024-01-16T03:37:04;-0.20;99.90
47482;DHT22;33219;47.410;9.730;2024-01-16T03:39:31;-0.30;99.90
47482;DHT22;33219;47.410;9.730;2024-01-16T03:41:58;-0.30;99.90
47482;DHT22;33219;47.410;9.730;2024-01-16T03:44:24;-0.30;99.90
47482;DHT22;33219;47.410;9.730;2024-01-16T03:46:51;-0.30;99.90
47482;DHT22;33219;47.410;9.730;2024-01-16T03:49:18;-0.30;99.90
47482;DHT22;33219;47.410;9.730;2024-01-16T03:51:45;-0.30;99.90
47482;DHT22;33219;47.410;9.730;2024-01-16T03:54:12;-0.30;99.90
47482;DHT22;33219;47.410;9.730;2024-01-16T03:56:39;-0.30;99.90
47482;DHT22;33219;47.410;9.730;2024-01-16T03:59:06;-0.30;99.90
47482;DHT22;33219;47.410;9.730;2024-01-16T04:01:33;-0.30;99.90
47482;DHT22;33219;47.410;9.730;2024-01-16T04:04:02;-0.30;99.90
47482;DHT22;33219;47.410;9.730;2024-01-16T04:06:29;-0.30;99.90
47482;DHT22;33219;47.410;9.730;2024-01-16T04:08:56;-0.30;99.90
47482;DHT22;33219;47.410;9.730;2024-01-16T04:11:23;-0.30;99.90
47482;DHT22;33219;47.410;9.730;2024-01-16T04:13:50;-0.30;99.90
47482;DHT22;33219;47.410;9.730;2024-01-16T04:16:17;-0.30;99.90
47482;DHT22;33219;47.410;9.730;2024-01-16T04:18:44;-0.30;99.90
47482;DHT22;33219;47.410;9.730;2024-01-16T04:21:11;-0.30;99.90
47482;DHT22;33219;47.410;9.730;2024-01-16T04:23:38;-0.30;99.90
47482;DHT22;33219;47.410;9.730;2024-01-16T04:26:04;-0.40;99.90
47482;DHT22;33219;47.410;9.730;2024-01-16T04:28:31;-0.40;99.90
47482;DHT22;33219;47.410;9.730;2024-01-16T04:30:58;-0.40;99.90
47482;DHT22;33219;47.410;9.730;2024-01-16T04:33:25;-0.40;99.90
47482;DHT22;33219;47.410;9.730;2024-01-16T04:35:52;-0.40;99.90
47482;DHT22;33219;47.410;9.730;2024-01-16T04:38:19;-0.40;99.90
47482;DHT22;33219;47.410;9.730;2024-01-16T04:40:45;-0.40;99.90
47482;DHT22;33219;47.410;9.730;2024-01-16T04:43:12;-0.40;99.90
47482;DHT22;33219;47.410;9.730;2024-01-16T04:45:39;-0.50;99.90
47482;DHT22;33219;47.410;9.730;2024-01-16T04:48:06;-0.50;99.90
47482;DHT22;33219;47.410;9.730;2024-01-16T04:50:34;-0.50;99.90
47482;DHT22;33219;47.410;9.730;2024-01-16T04:53:01;-0.50;99.90
47482;DHT22;33219;47.410;9.730;2024-01-16T04:55:29;-0.50;99.90
47482;DHT22;33219;47.410;9.730;2024-01-16T04:57:56;-0.50;99.90
47482;DHT22;33219;47.410;9.730;2024-01-16T05:00:23;-0.50;99.90
47482;DHT22;33219;47.410;9.730;2024-01-16T05:02:50;-0.50;99.90
47482;DHT22;33219;47.410;9.730;2024-01-16T05:05:17;-0.50;99.90
47482;DHT22;33219;47.410;9.730;2024-01-16T05:07:45;-0.50;99.90
47482;DHT22;33219;47.410;9.730;2024-01-16T05:10:12;-0.50;99.90
47482;DHT22;33219;47.410;9.730;2024-01-16T05:12:41;-0.50;99.90
47482;DHT22;33219;47.410;9.730;2024-01-16T05:15:09;-0.50;99.90
47482;DHT22;33219;47.410;9.730;2024-01-16T05:17:37;-0.50;99.90
47482;DHT22;33219;47.410;9.730;2024-01-16T05:20:04;-0.50;99.90
47482;DHT22;33219;47.410;9.730;2024-01-16T05:22:31;-0.50;99.90
47482;DHT22;33219;47.410;9.730;2024-01-16T05:24:59;-0.50;99.90
47482;DHT22;33219;47.410;9.730;2024-01-16T05:27:26;-0.50;99.90
47482;DHT22;33219;47.410;9.730;2024-01-16T05:29:53;-0.50;99.90
47482;DHT22;33219;47.410;9.730;2024-01-16T05:32:20;-0.50;99.90
47482;DHT22;33219;47.410;9.730;2024-01-16T05:34:46;-0.50;99.90
47482;DHT22;33219;47.410;9.730;2024-01-16T05:37:13;-0.50;99.90
47482;DHT22;33219;47.410;9.730;2024-01-16T05:39:40;-0.40;99.90
47482;DHT22;33219;47.410;9.730;2024-01-16T05:42:07;-0.50;99.90
47482;DHT22;33219;47.410;9.730;2024-01-16T05:44:34;-0.50;99.90
47482;DHT22;33219;47.410;9.730;2024-01-16T05:47:01;-0.50;99.90
47482;DHT22;33219;47.410;9.730;2024-01-16T05:49:28;-0.50;99.90
47482;DHT22;33219;47.410;9.730;2024-01-16T05:51:54;-0.50;99.90
47482;DHT22;33219;47.410;9.730;2024-01-16T05:54:21;-0.50;99.90
47482;DHT22;33219;47.410;9.730;2024-01-16T05:56:48;-0.50;99.90
47482;DHT22;33219;47.410;9.730;2024-01-16T05:59:15;-0.40;99.90
47482;DHT22;33219;47.410;9.730;2024-01-16T06:01:42;-0.50;99.90
47482;DHT22;33219;47.410;9.730;2024-01-16T06:04:09;-0.60;99.90
47482;DHT22;33219;47.410;9.730;2024-01-16T06:06:36;-0.60;99.90
47482;DHT22;33219;47.410;9.730;2024-01-16T06:09:03;-0.70;99.90
47482;DHT22;33219;47.410;9.730;2024-01-16T06:11:34;-0.60;99.90
47482;DHT22;33219;47.410;9.730;2024-01-16T06:14:02;-0.70;99.90
47482;DHT22;33219;47.410;9.730;2024-01-16T06:16:29;-0.80;99.90
47482;DHT22;33219;47.410;9.730;2024-01-16T06:18:56;-0.80;99.90
47482;DHT22;33219;47.410;9.730;2024-01-16T06:21:23;-0.90;99.90
47482;DHT22;33219;47.410;9.730;2024-01-16T06:23:50;-1.00;99.90
47482;DHT22;33219;47.410;9.730;2024-01-16T06:26:17;-1.00;99.90
47482;DHT22;33219;47.410;9.730;2024-01-16T06:28:44;-1.00;99.90
47482;DHT22;33219;47.410;9.730;2024-01-16T06:31:13;-1.10;99.90
47482;DHT22;33219;47.410;9.730;2024-01-16T06:36:34;-1.40;99.90
47482;DHT22;33219;47.410;9.730;2024-01-16T06:41:57;-1.60;99.90
47482;DHT22;33219;47.410;9.730;2024-01-16T06:44:43;-1.60;99.90
47482;DHT22;33219;47.410;9.730;2024-01-16T06:47:36;-1.70;99.90
47482;DHT22;33219;47.410;9.730;2024-01-16T06:50:21;-1.70;99.90
47482;DHT22;33219;47.410;9.730;2024-01-16T06:52:52;-1.80;99.90
47482;DHT22;33219;47.410;9.730;2024-01-16T06:55:33;-1.80;99.90
47482;DHT22;33219;47.410;9.730;2024-01-16T07:06:40;-1.90;99.90
47482;DHT22;33219;47.410;9.730;2024-01-16T07:09:14;-1.90;99.90
47482;DHT22;33219;47.410;9.730;2024-01-16T07:17:22;-2.10;99.90
47482;DHT22;33219;47.410;9.730;2024-01-16T07:25:58;-2.10;99.90
47482;DHT22;33219;47.410;9.730;2024-01-16T07:40:04;-2.10;99.90
47482;DHT22;33219;47.410;9.730;2024-01-16T07:42:43;-2.10;99.90
47482;DHT22;33219;47.410;9.730;2024-01-16T07:45:13;-2.10;99.90
47482;DHT22;33219;47.410;9.730;2024-01-16T07:50:49;-2.10;99.90
47482;DHT22;33219;47.410;9.730;2024-01-16T07:53:28;-2.10;99.90
47482;DHT22;33219;47.410;9.730;2024-01-16T08:01:49;-2.20;99.90
47482;DHT22;33219;47.410;9.730;2024-01-16T08:04:27;-2.10;99.90
47482;DHT22;33219;47.410;9.730;2024-01-16T08:09:53;-2.00;99.90
47482;DHT22;33219;47.410;9.730;2024-01-16T08:12:32;-1.40;99.90
47482;DHT22;33219;47.410;9.730;2024-01-16T08:15:17;-0.10;99.90
47482;DHT22;33219;47.410;9.730;2024-01-16T08:17:58;1.20;99.90
47482;DHT22;33219;47.410;9.730;2024-01-16T08:20:34;1.80;99.90
47482;DHT22;33219;47.410;9.730;2024-01-16T08:23:07;2.10;99.90
47482;DHT22;33219;47.410;9.730;2024-01-16T08:25:42;2.10;99.90
47482;DHT22;33219;47.410;9.730;2024-01-16T08:28:16;2.30;99.30
47482;DHT22;33219;47.410;9.730;2024-01-16T08:30:48;2.50;99.00
47482;DHT22;33219;47.410;9.730;2024-01-16T08:33:20;2.40;99.60
47482;DHT22;33219;47.410;9.730;2024-01-16T08:35:55;2.50;98.80
47482;DHT22;33219;47.410;9.730;2024-01-16T08:38:43;2.50;98.60
47482;DHT22;33219;47.410;9.730;2024-01-16T08:41:15;1.60;99.60
47482;DHT22;33219;47.410;9.730;2024-01-16T08:43:46;1.20;99.90
47482;DHT22;33219;47.410;9.730;2024-01-16T08:46:21;1.50;99.90
47482;DHT22;33219;47.410;9.730;2024-01-16T08:49:04;1.40;99.90
47482;DHT22;33219;47.410;9.730;2024-01-16T08:51:39;1.50;99.90
47482;DHT22;33219;47.410;9.730;2024-01-16T08:54:10;1.40;99.90
47482;DHT22;33219;47.410;9.730;2024-01-16T08:56:41;1.40;99.90
47482;DHT22;33219;47.410;9.730;2024-01-16T08:59:41;1.60;99.90
47482;DHT22;33219;47.410;9.730;2024-01-16T09:02:08;1.80;99.90
47482;DHT22;33219;47.410;9.730;2024-01-16T09:04:37;1.80;99.90
47482;DHT22;33219;47.410;9.730;2024-01-16T09:09:35;1.80;99.90
47482;DHT22;33219;47.410;9.730;2024-01-16T09:12:06;2.00;99.90
47482;DHT22;33219;47.410;9.730;2024-01-16T09:17:12;2.00;99.90
47482;DHT22;33219;47.410;9.730;2024-01-16T09:19:44;2.10;99.90
47482;DHT22;33219;47.410;9.730;2024-01-16T09:22:13;2.10;99.90
47482;DHT22;33219;47.410;9.730;2024-01-16T09:24:42;2.20;99.90
47482;DHT22;33219;47.410;9.730;2024-01-16T09:27:19;2.20;99.90
47482;DHT22;33219;47.410;9.730;2024-01-16T09:29:51;2.30;99.90
47482;DHT22;33219;47.410;9.730;2024-01-16T09:32:24;2.50;99.70
47482;DHT22;33219;47.410;9.730;2024-01-16T09:35:14;2.50;99.60
47482;DHT22;33219;47.410;9.730;2024-01-16T09:43:17;2.40;99.80
47482;DHT22;33219;47.410;9.730;2024-01-16T09:45:39;2.10;99.90
47482;DHT22;33219;47.410;9.730;2024-01-16T09:48:20;2.20;99.90
47482;DHT22;33219;47.410;9.730;2024-01-16T09:53:28;2.10;99.90
47482;DHT22;33219;47.410;9.730;2024-01-16T09:56:25;2.30;99.90
47482;DHT22;33219;47.410;9.730;2024-01-16T09:58:51;2.30;99.90
47482;DHT22;33219;47.410;9.730;2024-01-16T10:06:33;2.20;99.90
47482;DHT22;33219;47.410;9.730;2024-01-16T10:09:18;2.30;99.90
47482;DHT22;33219;47.410;9.730;2024-01-16T10:11:54;2.20;99.90
47482;DHT22;33219;47.410;9.730;2024-01-16T10:14:27;2.30;99.90
47482;DHT22;33219;47.410;9.730;2024-01-16T10:19:56;2.50;99.90
47482;DHT22;33219;47.410;9.730;2024-01-16T10:22:12;2.60;99.90
47482;DHT22;33219;47.410;9.730;2024-01-16T10:27:11;2.80;99.90
47482;DHT22;33219;47.410;9.730;2024-01-16T10:32:42;2.80;99.90
47482;DHT22;33219;47.410;9.730;2024-01-16T10:35:09;2.60;99.90
47482;DHT22;33219;47.410;9.730;2024-01-16T10:37:48;2.70;99.90
47482;DHT22;33219;47.410;9.730;2024-01-16T10:43:10;2.50;99.90
47482;DHT22;33219;47.410;9.730;2024-01-16T10:46:06;2.40;99.90
47482;DHT22;33219;47.410;9.730;2024-01-16T10:48:28;2.40;99.90
47482;DHT22;33219;47.410;9.730;2024-01-16T10:51:04;2.30;99.90
47482;DHT22;33219;47.410;9.730;2024-01-16T10:56:29;2.50;99.90
47482;DHT22;33219;47.410;9.730;2024-01-16T11:04:55;2.70;99.40
47482;DHT22;33219;47.410;9.730;2024-01-16T11:22:28;2.80;98.40
47482;DHT22;33219;47.410;9.730;2024-01-16T11:28:27;2.60;98.10
47482;DHT22;33219;47.410;9.730;2024-01-16T11:30:33;2.60;98.40
47482;DHT22;33219;47.410;9.730;2024-01-16T11:33:01;2.70;98.10
47482;DHT22;33219;47.410;9.730;2024-01-16T11:35:33;2.80;98.20
47482;DHT22;33219;47.410;9.730;2024-01-16T11:38:06;2.80;98.00
47482;DHT22;33219;47.410;9.730;2024-01-16T11:40:33;2.80;97.90
47482;DHT22;33219;47.410;9.730;2024-01-16T11:48:15;2.90;97.40
47482;DHT22;33219;47.410;9.730;2024-01-16T11:50:40;2.90;97.40
47482;DHT22;33219;47.410;9.730;2024-01-16T11:53:30;2.90;97.30
47482;DHT22;33219;47.410;9.730;2024-01-16T11:56:02;3.10;97.40
47482;DHT22;33219;47.410;9.730;2024-01-16T12:00:56;3.30;96.80
47482;DHT22;33219;47.410;9.730;2024-01-16T12:03:34;3.10;96.70
47482;DHT22;33219;47.410;9.730;2024-01-16T12:06:07;3.10;96.80
47482;DHT22;33219;47.410;9.730;2024-01-16T12:08:37;3.00;96.80
47482;DHT22;33219;47.410;9.730;2024-01-16T12:11:06;3.20;96.90
47482;DHT22;33219;47.410;9.730;2024-01-16T12:13:35;3.20;95.80
47482;DHT22;33219;47.410;9.730;2024-01-16T12:16:06;3.40;95.80
47482;DHT22;33219;47.410;9.730;2024-01-16T12:18:45;3.70;95.70
47482;DHT22;33219;47.410;9.730;2024-01-16T12:21:19;3.90;95.30
47482;DHT22;33219;47.410;9.730;2024-01-16T12:23:52;4.20;95.20
47482;DHT22;33219;47.410;9.730;2024-01-16T12:26:21;4.30;94.60
47482;DHT22;33219;47.410;9.730;2024-01-16T12:28:54;4.40;94.40
47482;DHT22;33219;47.410;9.730;2024-01-16T12:34:22;4.50;94.60
47482;DHT22;33219;47.410;9.730;2024-01-16T12:42:33;4.30;94.10
47482;DHT22;33219;47.410;9.730;2024-01-16T12:47:59;3.80;94.70
47482;DHT22;33219;47.410;9.730;2024-01-16T12:50:40;3.70;94.80
47482;DHT22;33219;47.410;9.730;2024-01-16T12:56:10;3.30;95.60
47482;DHT22;33219;47.410;9.730;2024-01-16T13:01:28;3.10;95.90
47482;DHT22;33219;47.410;9.730;2024-01-16T13:04:10;3.10;96.00
47482;DHT22;33219;47.410;9.730;2024-01-16T13:15:41;3.00;96.00
47482;DHT22;33219;47.410;9.730;2024-01-16T13:21:31;3.00;96.20
47482;DHT22;33219;47.410;9.730;2024-01-16T13:24:11;3.10;96.20
47482;DHT22;33219;47.410;9.730;2024-01-16T13:26:48;3.10;96.00
47482;DHT22;33219;47.410;9.730;2024-01-16T13:29:27;3.10;96.10
47482;DHT22;33219;47.410;9.730;2024-01-16T13:32:13;3.10;95.90
47482;DHT22;33219;47.410;9.730;2024-01-16T13:34:44;3.20;95.80
47482;DHT22;33219;47.410;9.730;2024-01-16T13:37:44;3.10;95.60
47482;DHT22;33219;47.410;9.730;2024-01-16T13:45:34;2.90;95.80
47482;DHT22;33219;47.410;9.730;2024-01-16T13:48:15;2.90;96.10
47482;DHT22;33219;47.410;9.730;2024-01-16T13:51:02;2.90;96.00
47482;DHT22;33219;47.410;9.730;2024-01-16T13:56:38;2.80;96.10
47482;DHT22;33219;47.410;9.730;2024-01-16T13:59:15;2.80;96.00
47482;DHT22;33219;47.410;9.730;2024-01-16T14:20:07;2.60;96.30
47482;DHT22;33219;47.410;9.730;2024-01-16T14:22:42;2.60;96.50
47482;DHT22;33219;47.410;9.730;2024-01-16T14:25:29;2.50;96.60
47482;DHT22;33219;47.410;9.730;2024-01-16T14:28:14;2.40;96.70
47482;DHT22;33219;47.410;9.730;2024-01-16T14:30:52;2.30;96.70
47482;DHT22;33219;47.410;9.730;2024-01-16T14:33:26;2.30;96.80
47482;DHT22;33219;47.410;9.730;2024-01-16T14:36:05;2.30;97.10
47482;DHT22;33219;47.410;9.730;2024-01-16T14:38:38;2.20;96.80
47482;DHT22;33219;47.410;9.730;2024-01-16T14:41:12;2.20;96.90
47482;DHT22;33219;47.410;9.730;2024-01-16T14:43:52;2.20;96.90
47482;DHT22;33219;47.410;9.730;2024-01-16T14:46:25;2.10;96.80
47482;DHT22;33219;47.410;9.730;2024-01-16T14:48:58;2.10;97.40
47482;DHT22;33219;47.410;9.730;2024-01-16T14:51:30;2.00;97.90
47482;DHT22;33219;47.410;9.730;2024-01-16T14:54:04;2.00;98.10
47482;DHT22;33219;47.410;9.730;2024-01-16T14:56:37;2.00;98.40
47482;DHT22;33219;47.410;9.730;2024-01-16T14:59:15;1.90;98.60
47482;DHT22;33219;47.410;9.730;2024-01-16T15:01:53;1.80;98.90
47482;DHT22;33219;47.410;9.730;2024-01-16T15:04:32;1.80;99.20
47482;DHT22;33219;47.410;9.730;2024-01-16T15:07:08;1.70;99.30
47482;DHT22;33219;47.410;9.730;2024-01-16T15:09:40;1.70;99.30
47482;DHT22;33219;47.410;9.730;2024-01-16T15:12:11;1.60;99.70
47482;DHT22;33219;47.410;9.730;2024-01-16T15:14:42;1.60;99.60
47482;DHT22;33219;47.410;9.730;2024-01-16T15:17:09;1.40;99.90
47482;DHT22;33219;47.410;9.730;2024-01-16T15:19:36;1.30;99.90
47482;DHT22;33219;47.410;9.730;2024-01-16T15:22:03;1.20;99.90
47482;DHT22;33219;47.410;9.730;2024-01-16T15:24:31;1.10;99.90
47482;DHT22;33219;47.410;9.730;2024-01-16T15:26:58;1.10;99.90
47482;DHT22;33219;47.410;9.730;2024-01-16T15:29:25;1.00;99.90
47482;DHT22;33219;47.410;9.730;2024-01-16T15:31:55;0.90;99.90
47482;DHT22;33219;47.410;9.730;2024-01-16T15:34:22;0.70;99.90
47482;DHT22;33219;47.410;9.730;2024-01-16T15:36:49;0.60;99.90
47482;DHT22;33219;47.410;9.730;2024-01-16T15:39:16;0.50;99.90
47482;DHT22;33219;47.410;9.730;2024-01-16T15:41:43;0.40;99.90
47482;DHT22;33219;47.410;9.730;2024-01-16T15:44:13;0.30;99.90
47482;DHT22;33219;47.410;9.730;2024-01-16T15:49:25;0.30;99.90
47482;DHT22;33219;47.410;9.730;2024-01-16T15:51:52;0.20;99.90
47482;DHT22;33219;47.410;9.730;2024-01-16T15:54:19;0.10;99.90
47482;DHT22;33219;47.410;9.730;2024-01-16T15:56:46;0.00;99.90
47482;DHT22;33219;47.410;9.730;2024-01-16T15:59:13;-0.10;99.90
47482;DHT22;33219;47.410;9.730;2024-01-16T16:01:43;-0.20;99.90
47482;DHT22;33219;47.410;9.730;2024-01-16T16:04:10;-0.30;99.90
47482;DHT22;33219;47.410;9.730;2024-01-16T16:06:37;-0.40;99.90
47482;DHT22;33219;47.410;9.730;2024-01-16T16:09:04;-0.40;99.90
47482;DHT22;33219;47.410;9.730;2024-01-16T16:11:40;-0.40;99.90
47482;DHT22;33219;47.410;9.730;2024-01-16T16:14:15;-0.40;99.90
47482;DHT22;33219;47.410;9.730;2024-01-16T16:16:42;-0.30;99.90
47482;DHT22;33219;47.410;9.730;2024-01-16T16:19:09;-0.30;99.90
47482;DHT22;33219;47.410;9.730;2024-01-16T16:21:36;-0.40;99.90
47482;DHT22;33219;47.410;9.730;2024-01-16T16:24:03;-0.30;99.90
47482;DHT22;33219;47.410;9.730;2024-01-16T16:26:36;-0.40;99.90
47482;DHT22;33219;47.410;9.730;2024-01-16T16:29:04;-0.40;99.90
47482;DHT22;33219;47.410;9.730;2024-01-16T16:31:31;-0.50;99.90
47482;DHT22;33219;47.410;9.730;2024-01-16T16:34:02;-0.60;99.90
47482;DHT22;33219;47.410;9.730;2024-01-16T16:36:29;-0.60;99.90
47482;DHT22;33219;47.410;9.730;2024-01-16T16:38:56;-0.70;99.90
47482;DHT22;33219;47.410;9.730;2024-01-16T16:41:24;-0.70;99.90
47482;DHT22;33219;47.410;9.730;2024-01-16T16:43:51;-0.80;99.90
47482;DHT22;33219;47.410;9.730;2024-01-16T16:46:19;-0.80;99.90
47482;DHT22;33219;47.410;9.730;2024-01-16T16:48:46;-0.80;99.90
47482;DHT22;33219;47.410;9.730;2024-01-16T16:51:15;-0.80;99.90
47482;DHT22;33219;47.410;9.730;2024-01-16T16:53:42;-0.90;99.90
47482;DHT22;33219;47.410;9.730;2024-01-16T16:56:11;-0.90;99.90
47482;DHT22;33219;47.410;9.730;2024-01-16T16:58:41;-1.00;99.90
47482;DHT22;33219;47.410;9.730;2024-01-16T17:01:11;-1.00;99.90
47482;DHT22;33219;47.410;9.730;2024-01-16T17:03:38;-1.00;99.90
47482;DHT22;33219;47.410;9.730;2024-01-16T17:06:05;-1.10;99.90
47482;DHT22;33219;47.410;9.730;2024-01-16T17:08:34;-1.10;99.90
47482;DHT22;33219;47.410;9.730;2024-01-16T17:11:01;-1.10;99.90
47482;DHT22;33219;47.410;9.730;2024-01-16T17:13:33;-1.10;99.90
47482;DHT22;33219;47.410;9.730;2024-01-16T17:16:00;-1.20;99.90
47482;DHT22;33219;47.410;9.730;2024-01-16T17:18:31;-1.20;99.90
47482;DHT22;33219;47.410;9.730;2024-01-16T17:21:00;-1.20;99.90
47482;DHT22;33219;47.410;9.730;2024-01-16T17:23:27;-1.20;99.90
47482;DHT22;33219;47.410;9.730;2024-01-16T17:25:55;-1.20;99.90
47482;DHT22;33219;47.410;9.730;2024-01-16T17:28:26;-1.10;99.90
47482;DHT22;33219;47.410;9.730;2024-01-16T17:30:54;-1.20;99.90
47482;DHT22;33219;47.410;9.730;2024-01-16T17:33:21;-1.20;99.90
47482;DHT22;33219;47.410;9.730;2024-01-16T17:35:48;-1.20;99.90
47482;DHT22;33219;47.410;9.730;2024-01-16T17:38:17;-1.10;99.90
47482;DHT22;33219;47.410;9.730;2024-01-16T17:40:46;-1.10;99.90
47482;DHT22;33219;47.410;9.730;2024-01-16T17:43:14;-1.10;99.90
47482;DHT22;33219;47.410;9.730;2024-01-16T17:45:41;-1.10;99.90
47482;DHT22;33219;47.410;9.730;2024-01-16T17:48:10;-1.20;99.90
47482;DHT22;33219;47.410;9.730;2024-01-16T17:50:36;-1.20;99.90
47482;DHT22;33219;47.410;9.730;2024-01-16T17:53:03;-1.20;99.90
47482;DHT22;33219;47.410;9.730;2024-01-16T17:55:32;-1.20;99.90
47482;DHT22;33219;47.410;9.730;2024-01-16T17:58:00;-1.30;99.90
47482;DHT22;33219;47.410;9.730;2024-01-16T18:00:27;-1.30;99.90
47482;DHT22;33219;47.410;9.730;2024-01-16T18:03:00;-1.30;99.90
47482;DHT22;33219;47.410;9.730;2024-01-16T18:05:27;-1.40;99.90
47482;DHT22;33219;47.410;9.730;2024-01-16T18:07:55;-1.40;99.90
47482;DHT22;33219;47.410;9.730;2024-01-16T18:10:22;-1.40;99.90
47482;DHT22;33219;47.410;9.730;2024-01-16T18:12:49;-1.40;99.90
47482;DHT22;33219;47.410;9.730;2024-01-16T18:15:16;-1.40;99.90
47482;DHT22;33219;47.410;9.730;2024-01-16T18:17:47;-1.40;99.90
47482;DHT22;33219;47.410;9.730;2024-01-16T18:20:18;-1.40;99.90
47482;DHT22;33219;47.410;9.730;2024-01-16T18:22:47;-1.30;99.90
47482;DHT22;33219;47.410;9.730;2024-01-16T18:25:18;-1.30;99.90
47482;DHT22;33219;47.410;9.730;2024-01-16T18:27:45;-1.30;99.90
47482;DHT22;33219;47.410;9.730;2024-01-16T18:30:14;-1.20;99.90
47482;DHT22;33219;47.410;9.730;2024-01-16T18:32:44;-1.10;99.90
47482;DHT22;33219;47.410;9.730;2024-01-16T18:35:12;-1.10;99.90
47482;DHT22;33219;47.410;9.730;2024-01-16T18:37:41;-1.00;99.90
47482;DHT22;33219;47.410;9.730;2024-01-16T18:40:09;-0.90;99.90
47482;DHT22;33219;47.410;9.730;2024-01-16T18:42:36;-0.90;99.90
47482;DHT22;33219;47.410;9.730;2024-01-16T18:45:03;-0.90;99.90
47482;DHT22;33219;47.410;9.730;2024-01-16T18:47:31;-0.90;99.90
47482;DHT22;33219;47.410;9.730;2024-01-16T18:49:58;-0.80;99.90